Back to Top

Language: 

My Weather Underground Personal Weather Station Historical Data with Graphs...

Delerius Weather Station Historical Data
Daily Summary for August 2, 2017 Units:  English    Metric   Both
« Previous Day
Next Day »
Daily Weekly Monthly Yearly Custom
  High: Low: Average:
Temperature: 67.3 °F 54.7 °F 60.8 °F
Dew Point: 62.3 °F 52.0 °F 57.4 °F
Humidity: 94 % 79 % 89 %
Wind Speed: 13.0 mph 0.0 mph 6.7 mph
Wind Gust: 24.0 mph - -
Wind:- - South
Pressure: 29.90 in 29.56 in -
Precipitation: 0.06 in    
Historical Graphs
 
 
Tabular Data for August 2, 2017
Time Temperature Dew Point Pressure Wind Wind Speed Wind Gust Humidity Rainfall Rate (Hourly) solar Conditions
00:04 55.6 °F 52.4 °F 29.90 in Calm   2.0 mph 89 % 0.00 in 0 W/m2
00:09 55.6 °F 52.4 °F 29.90 in Calm   2.0 mph 89 % 0.00 in 0 W/m2
00:14 55.4 °F 52.5 °F 29.90 in Calm   1.0 mph 90 % 0.00 in 0 W/m2
00:19 55.2 °F 52.3 °F 29.90 in Calm     90 % 0.00 in 0 W/m2
00:24 55.2 °F 52.3 °F 29.90 in Calm     90 % 0.00 in 0 W/m2
00:29 55.0 °F 52.2 °F 29.90 in Calm     90 % 0.00 in 0 W/m2
00:34 54.9 °F 52.0 °F 29.90 in Calm     90 % 0.00 in 0 W/m2
00:39 54.7 °F 52.1 °F 29.90 in Calm     91 % 0.00 in 0 W/m2
00:44 54.7 °F 52.1 °F 29.90 in Calm   1.0 mph 91 % 0.00 in 0 W/m2
00:49 54.7 °F 52.1 °F 29.90 in Calm   2.0 mph 91 % 0.00 in 0 W/m2
00:54 54.9 °F 52.3 °F 29.90 in Calm   2.0 mph 91 % 0.00 in 0 W/m2
00:59 55.0 °F 52.8 °F 29.90 in Calm     92 % 0.00 in 0 W/m2
01:04 55.0 °F 52.5 °F 29.89 in Calm     91 % 0.00 in 0 W/m2
01:09 55.0 °F 52.5 °F 29.89 in Calm     91 % 0.00 in 0 W/m2
01:14 55.0 °F 52.5 °F 29.89 in Calm     91 % 0.00 in 0 W/m2
01:19 55.0 °F 52.5 °F 29.89 in Calm     91 % 0.00 in 0 W/m2
01:24 55.0 °F 52.5 °F 29.89 in Calm     91 % 0.00 in 0 W/m2
01:29 55.2 °F 52.6 °F 29.89 in Calm     91 % 0.00 in 0 W/m2
01:34 55.2 °F 52.6 °F 29.89 in Calm     91 % 0.00 in 0 W/m2
01:39 55.2 °F 52.9 °F 29.89 in Calm   4.0 mph 92 % 0.00 in 0 W/m2
01:44 55.4 °F 53.1 °F 29.89 in WSW 2.0 mph 5.0 mph 92 % 0.00 in 0 W/m2
01:49 55.8 °F 53.5 °F 29.88 in SW 3.0 mph 7.0 mph 92 % 0.00 in 0 W/m2
01:54 55.8 °F 53.5 °F 29.89 in SW 4.0 mph 7.0 mph 92 % 0.00 in 0 W/m2
01:59 55.9 °F 53.4 °F 29.89 in SW 5.0 mph 7.0 mph 91 % 0.00 in 0 W/m2
02:04 55.9 °F 53.4 °F 29.89 in SW 4.0 mph 7.0 mph 91 % 0.00 in 0 W/m2
02:09 56.1 °F 53.5 °F 29.89 in SW 4.0 mph 7.0 mph 91 % 0.00 in 0 W/m2
02:14 56.1 °F 53.5 °F 29.88 in SW 4.0 mph 7.0 mph 91 % 0.00 in 0 W/m2
02:19 56.1 °F 53.2 °F 29.88 in SW 3.0 mph 6.0 mph 90 % 0.00 in 0 W/m2
02:24 56.1 °F 53.2 °F 29.88 in SW 3.0 mph 5.0 mph 90 % 0.00 in 0 W/m2
02:29 56.3 °F 53.4 °F 29.88 in SW 2.0 mph 6.0 mph 90 % 0.00 in 0 W/m2
02:31 56.3 °F 53.4 °F 29.88 in SW 2.0 mph 6.0 mph 90 % 0.00 in 0 W/m2
02:36 56.3 °F 53.4 °F 29.88 in SW 2.0 mph 5.0 mph 90 % 0.00 in 0 W/m2
02:41 56.3 °F 53.4 °F 29.88 in SW 3.0 mph 7.0 mph 90 % 0.00 in 0 W/m2
02:46 56.5 °F 53.6 °F 29.88 in SW 4.0 mph 8.0 mph 90 % 0.00 in 0 W/m2
02:51 56.5 °F 53.3 °F 29.88 in SW 4.0 mph 8.0 mph 89 % 0.00 in 0 W/m2
02:56 56.5 °F 53.0 °F 29.88 in SW 4.0 mph 7.0 mph 88 % 0.00 in 0 W/m2
03:01 56.5 °F 53.0 °F 29.88 in SW 4.0 mph 7.0 mph 88 % 0.00 in 0 W/m2
03:06 56.5 °F 53.0 °F 29.88 in SW 3.0 mph 6.0 mph 88 % 0.00 in 0 W/m2
03:11 56.5 °F 53.0 °F 29.88 in SW 4.0 mph 7.0 mph 88 % 0.00 in 0 W/m2
03:13 56.5 °F 53.0 °F 29.88 in SW 4.0 mph 7.0 mph 88 % 0.00 in 0 W/m2
03:18 56.5 °F 53.0 °F 29.88 in SW 3.0 mph 7.0 mph 88 % 0.00 in 0 W/m2
03:23 56.5 °F 53.0 °F 29.88 in SW 3.0 mph 7.0 mph 88 % 0.00 in 0 W/m2
03:28 56.5 °F 53.0 °F 29.88 in SW 4.0 mph 8.0 mph 88 % 0.00 in 0 W/m2
03:33 56.3 °F 52.8 °F 29.88 in SW 4.0 mph 8.0 mph 88 % 0.00 in 0 W/m2
03:38 56.3 °F 52.8 °F 29.88 in SW 4.0 mph 7.0 mph 88 % 0.00 in 0 W/m2
03:43 56.3 °F 52.8 °F 29.88 in SW 5.0 mph 7.0 mph 88 % 0.00 in 0 W/m2
03:48 56.3 °F 52.8 °F 29.88 in SW 4.0 mph 7.0 mph 88 % 0.00 in 0 W/m2
03:53 56.3 °F 52.8 °F 29.88 in SW 3.0 mph 7.0 mph 88 % 0.00 in 0 W/m2
03:58 56.1 °F 52.6 °F 29.88 in SW 2.0 mph 6.0 mph 88 % 0.00 in 0 W/m2
04:03 56.3 °F 52.8 °F 29.88 in SW 2.0 mph 6.0 mph 88 % 0.00 in 0 W/m2
04:08 56.1 °F 52.6 °F 29.88 in SW 3.0 mph 7.0 mph 88 % 0.00 in 0 W/m2
04:13 56.3 °F 52.8 °F 29.88 in SW 4.0 mph 7.0 mph 88 % 0.00 in 0 W/m2
04:14 56.3 °F 52.8 °F 29.88 in SW 4.0 mph 7.0 mph 88 % 0.00 in 0 W/m2
04:19 56.5 °F 53.0 °F 29.88 in SW 5.0 mph 7.0 mph 88 % 0.00 in 0 W/m2
04:24 56.5 °F 53.0 °F 29.88 in SW 4.0 mph 7.0 mph 88 % 0.00 in 0 W/m2
04:29 56.5 °F 53.0 °F 29.88 in SSW 2.0 mph 6.0 mph 88 % 0.00 in 0 W/m2
04:34 56.5 °F 53.0 °F 29.88 in SSW 1.0 mph 4.0 mph 88 % 0.00 in 0 W/m2
04:35 56.5 °F 53.0 °F 29.88 in SSW 1.0 mph 4.0 mph 88 % 0.00 in 0 W/m2
04:40 56.5 °F 53.0 °F 29.87 in SSW 1.0 mph 5.0 mph 88 % 0.00 in 0 W/m2
04:45 56.5 °F 53.0 °F 29.88 in SSW 1.0 mph 5.0 mph 88 % 0.00 in 0 W/m2
04:50 56.7 °F 53.1 °F 29.88 in Calm   4.0 mph 88 % 0.00 in 0 W/m2
04:55 56.7 °F 53.1 °F 29.88 in Calm   4.0 mph 88 % 0.00 in 0 W/m2
05:00 56.7 °F 53.1 °F 29.87 in Calm   2.0 mph 88 % 0.00 in 0 W/m2
05:05 56.5 °F 53.0 °F 29.87 in Calm   5.0 mph 88 % 0.00 in 0 W/m2
05:10 56.5 °F 53.0 °F 29.87 in Calm   5.0 mph 88 % 0.00 in 0 W/m2
05:15 56.5 °F 53.0 °F 29.87 in Calm   5.0 mph 88 % 0.00 in 0 W/m2
05:20 56.5 °F 53.0 °F 29.87 in SSW 1.0 mph 5.0 mph 88 % 0.00 in 0 W/m2
05:25 56.7 °F 53.1 °F 29.87 in SSW 1.0 mph 5.0 mph 88 % 0.00 in 0 W/m2
05:30 56.7 °F 53.1 °F 29.87 in SSW 1.0 mph 6.0 mph 88 % 0.00 in 0 W/m2
05:35 56.7 °F 53.1 °F 29.87 in SSW 1.0 mph 6.0 mph 88 % 0.00 in 0 W/m2
05:40 56.7 °F 53.1 °F 29.87 in SSW 1.0 mph 6.0 mph 88 % 0.00 in 0 W/m2
05:45 56.7 °F 53.1 °F 29.87 in SSW 2.0 mph 6.0 mph 88 % 0.00 in 0 W/m2
05:51 56.8 °F 53.0 °F 29.87 in SSW 2.0 mph 7.0 mph 87 % 0.00 in 5 W/m2
05:56 56.8 °F 53.0 °F 29.87 in South 4.0 mph 9.0 mph 87 % 0.00 in 7 W/m2
06:01 57.0 °F 53.2 °F 29.87 in South 5.0 mph 10.0 mph 87 % 0.00 in 11 W/m2
06:06 57.0 °F 53.2 °F 29.87 in South 5.0 mph 10.0 mph 87 % 0.00 in 12 W/m2
06:11 57.0 °F 53.2 °F 29.86 in South 5.0 mph 9.0 mph 87 % 0.00 in 14 W/m2
06:16 57.0 °F 53.2 °F 29.86 in South 5.0 mph 9.0 mph 87 % 0.00 in 19 W/m2
06:21 57.0 °F 53.2 °F 29.86 in SSW 4.0 mph 9.0 mph 87 % 0.00 in 23 W/m2
06:26 57.0 °F 53.2 °F 29.86 in SSW 3.0 mph 9.0 mph 87 % 0.00 in 21 W/m2
06:31 57.0 °F 53.2 °F 29.86 in SSW 2.0 mph 7.0 mph 87 % 0.00 in 23 W/m2
06:36 57.2 °F 53.4 °F 29.86 in South 3.0 mph 7.0 mph 87 % 0.00 in 30 W/m2
06:41 57.2 °F 53.4 °F 29.86 in SSE 4.0 mph 8.0 mph 87 % 0.00 in 42 W/m2
06:46 57.0 °F 53.2 °F 29.86 in SSE 5.0 mph 8.0 mph 87 % 0.00 in 46 W/m2
06:51 57.0 °F 53.5 °F 29.86 in SSE 4.0 mph 7.0 mph 88 % 0.00 in 56 W/m2
06:56 57.0 °F 53.5 °F 29.86 in SSE 2.0 mph 6.0 mph 88 % 0.00 in 72 W/m2
07:02 57.0 °F 53.5 °F 29.86 in South 3.0 mph 7.0 mph 88 % 0.00 in 90 W/m2
07:07 57.4 °F 53.9 °F 29.86 in SSW 3.0 mph 7.0 mph 88 % 0.00 in 74 W/m2
07:12 57.4 °F 53.9 °F 29.86 in SSW 5.0 mph 9.0 mph 88 % 0.00 in 54 W/m2
07:17 57.6 °F 54.0 °F 29.86 in SSW 5.0 mph 9.0 mph 88 % 0.00 in 46 W/m2
07:22 57.6 °F 54.0 °F 29.86 in SSW 4.0 mph 9.0 mph 88 % 0.00 in 42 W/m2
07:27 57.6 °F 54.0 °F 29.86 in SSW 5.0 mph 9.0 mph 88 % 0.00 in 26 W/m2
07:32 57.6 °F 54.3 °F 29.86 in SSW 7.0 mph 14.0 mph 89 % 0.00 in 37 W/m2
07:37 57.6 °F 54.3 °F 29.86 in SSW 8.0 mph 14.0 mph 89 % 0.00 in 37 W/m2
07:42 57.6 °F 54.3 °F 29.86 in SW 8.0 mph 12.0 mph 89 % 0.00 in 42 W/m2
07:47 57.7 °F 54.5 °F 29.86 in SW 8.0 mph 12.0 mph 89 % 0.00 in 51 W/m2
07:52 57.7 °F 54.5 °F 29.86 in SSW 8.0 mph 13.0 mph 89 % 0.00 in 69 W/m2
07:57 57.7 °F 54.5 °F 29.86 in SSW 9.0 mph 13.0 mph 89 % 0.00 in 70 W/m2
08:02 57.9 °F 54.7 °F 29.86 in SSW 8.0 mph 13.0 mph 89 % 0.00 in 88 W/m2
08:07 57.9 °F 54.7 °F 29.86 in SSW 6.0 mph 10.0 mph 89 % 0.00 in 77 W/m2
08:12 57.9 °F 54.7 °F 29.86 in SSW 4.0 mph 9.0 mph 89 % 0.00 in 70 W/m2
08:15 58.1 °F 54.9 °F 29.85 in SSW 3.0 mph 7.0 mph 89 % 0.00 in 74 W/m2
08:20 58.3 °F 55.1 °F 29.85 in SSW 4.0 mph 9.0 mph 89 % 0.00 in 76 W/m2
08:25 58.3 °F 55.1 °F 29.85 in SSW 3.0 mph 10.0 mph 89 % 0.00 in 63 W/m2
08:30 58.3 °F 55.1 °F 29.84 in South 2.0 mph 10.0 mph 89 % 0.00 in 72 W/m2
08:35 58.3 °F 55.1 °F 29.84 in SSE 3.0 mph 6.0 mph 89 % 0.00 in 91 W/m2
08:40 58.3 °F 55.1 °F 29.84 in SSE 2.0 mph 5.0 mph 89 % 0.00 in 120 W/m2
08:45 58.3 °F 55.1 °F 29.84 in SSE 2.0 mph 6.0 mph 89 % 0.00 in 183 W/m2
08:50 58.5 °F 55.2 °F 29.84 in SSE 2.0 mph 6.0 mph 89 % 0.00 in 258 W/m2
08:55 58.8 °F 55.6 °F 29.84 in SSE 3.0 mph 8.0 mph 89 % 0.00 in 315 W/m2
09:00 59.2 °F 55.9 °F 29.84 in South 5.0 mph 9.0 mph 89 % 0.00 in 218 W/m2
09:05 59.4 °F 55.8 °F 29.84 in South 6.0 mph 12.0 mph 88 % 0.00 in 246 W/m2
09:10 59.5 °F 55.7 °F 29.84 in South 6.0 mph 12.0 mph 87 % 0.00 in 202 W/m2
09:15 59.7 °F 55.8 °F 29.84 in South 6.0 mph 14.0 mph 87 % 0.00 in 186 W/m2
09:20 59.9 °F 56.0 °F 29.84 in SSE 6.0 mph 14.0 mph 87 % 0.00 in 176 W/m2
09:25 59.9 °F 55.7 °F 29.84 in SSE 7.0 mph 12.0 mph 86 % 0.00 in 155 W/m2
09:30 59.9 °F 55.7 °F 29.84 in SSE 8.0 mph 14.0 mph 86 % 0.00 in 163 W/m2
09:35 59.9 °F 55.7 °F 29.84 in SSE 9.0 mph 14.0 mph 86 % 0.00 in 176 W/m2
09:40 59.9 °F 55.7 °F 29.84 in SSE 8.0 mph 13.0 mph 86 % 0.00 in 144 W/m2
09:45 60.1 °F 56.2 °F 29.83 in SSE 8.0 mph 15.0 mph 87 % 0.00 in 200 W/m2
09:50 60.1 °F 56.2 °F 29.83 in SSE 7.0 mph 15.0 mph 87 % 0.00 in 265 W/m2
09:55 60.3 °F 56.4 °F 29.83 in SSE 8.0 mph 14.0 mph 87 % 0.00 in 230 W/m2
10:00 60.4 °F 56.6 °F 29.83 in SSE 8.0 mph 15.0 mph 87 % 0.00 in 197 W/m2
10:05 60.4 °F 56.2 °F 29.83 in SSE 8.0 mph 15.0 mph 86 % 0.00 in 220 W/m2
10:10 60.6 °F 56.4 °F 29.83 in SSE 8.0 mph 14.0 mph 86 % 0.00 in 304 W/m2
10:15 60.8 °F 56.6 °F 29.82 in South 8.0 mph 13.0 mph 86 % 0.00 in 301 W/m2
10:20 61.0 °F 56.8 °F 29.82 in SSE 9.0 mph 14.0 mph 86 % 0.00 in 380 W/m2
10:25 61.2 °F 56.3 °F 29.82 in SSE 10.0 mph 20.0 mph 84 % 0.00 in 338 W/m2
10:30 61.3 °F 56.5 °F 29.81 in SSE 10.0 mph 20.0 mph 84 % 0.00 in 364 W/m2
10:35 61.9 °F 56.7 °F 29.81 in SSE 10.0 mph 20.0 mph 83 % 0.00 in 390 W/m2
10:40 62.1 °F 56.8 °F 29.81 in SSE 10.0 mph 19.0 mph 83 % 0.00 in 355 W/m2
10:45 62.4 °F 57.2 °F 29.81 in SSE 8.0 mph 18.0 mph 83 % 0.00 in 301 W/m2
10:50 62.8 °F 57.2 °F 29.81 in SSE 8.0 mph 16.0 mph 82 % 0.00 in 334 W/m2
10:55 62.8 °F 57.2 °F 29.80 in SSE 9.0 mph 16.0 mph 82 % 0.00 in 364 W/m2
11:00 63.1 °F 57.2 °F 29.80 in SSE 9.0 mph 16.0 mph 81 % 0.00 in 336 W/m2
11:05 63.3 °F 57.0 °F 29.80 in SSE 10.0 mph 21.0 mph 80 % 0.00 in 278 W/m2
11:10 63.5 °F 57.2 °F 29.80 in SSE 9.0 mph 21.0 mph 80 % 0.00 in 294 W/m2
11:15 63.1 °F 56.5 °F 29.79 in South 11.0 mph 23.0 mph 79 % 0.00 in 322 W/m2
11:20 63.0 °F 56.7 °F 29.79 in South 13.0 mph 23.0 mph 80 % 0.00 in 285 W/m2
11:25 62.6 °F 57.0 °F 29.79 in South 11.0 mph 18.0 mph 82 % 0.00 in 346 W/m2
11:31 62.4 °F 57.2 °F 29.79 in South 10.0 mph 16.0 mph 83 % 0.00 in 355 W/m2
11:36 62.2 °F 57.3 °F 29.79 in SSE 11.0 mph 21.0 mph 84 % 0.00 in 316 W/m2
11:41 61.9 °F 57.6 °F 29.78 in SSE 12.0 mph 21.0 mph 86 % 0.00 in 271 W/m2
11:46 61.5 °F 57.9 °F 29.78 in SSE 12.0 mph 20.0 mph 88 % 0.00 in 220 W/m2
11:51 61.2 °F 57.9 °F 29.78 in SSE 12.0 mph 23.0 mph 89 % 0.00 in 255 W/m2
11:56 61.0 °F 58.0 °F 29.78 in SSE 11.0 mph 23.0 mph 90 % 0.00 in 199 W/m2
12:01 61.0 °F 58.3 °F 29.77 in SSE 10.0 mph 20.0 mph 91 % 0.00 in 178 W/m2
12:06 60.8 °F 58.2 °F 29.77 in SSE 10.0 mph 18.0 mph 91 % 0.00 in 204 W/m2
12:11 60.6 °F 58.0 °F 29.77 in SSE 10.0 mph 18.0 mph 91 % 0.00 in 153 W/m2
12:16 60.6 °F 58.0 °F 29.77 in SSE 9.0 mph 19.0 mph 91 % 0.00 in 250 W/m2
12:21 60.6 °F 58.0 °F 29.76 in SSE 10.0 mph 19.0 mph 91 % 0.00 in 165 W/m2
12:26 60.6 °F 58.0 °F 29.76 in SSE 11.0 mph 19.0 mph 91 % 0.00 in 211 W/m2
12:31 60.4 °F 57.8 °F 29.76 in SSE 11.0 mph 18.0 mph 91 % 0.00 in 211 W/m2
12:36 60.4 °F 58.1 °F 29.76 in SE 12.0 mph 20.0 mph 92 % 0.00 in 211 W/m2
12:41 60.6 °F 58.3 °F 29.75 in SSE 13.0 mph 20.0 mph 92 % 0.00 in 339 W/m2
12:46 60.8 °F 58.5 °F 29.75 in SSE 12.0 mph 23.0 mph 92 % 0.00 in 292 W/m2
12:51 60.8 °F 58.2 °F 29.75 in SSE 12.0 mph 23.0 mph 91 % 0.00 in 302 W/m2
12:56 61.0 °F 58.3 °F 29.75 in SSE 12.0 mph 21.0 mph 91 % 0.00 in 255 W/m2
13:01 61.2 °F 58.5 °F 29.75 in SSE 12.0 mph 21.0 mph 91 % 0.00 in 292 W/m2
13:06 61.2 °F 58.5 °F 29.75 in SSE 12.0 mph 22.0 mph 91 % 0.00 in 290 W/m2
13:11 61.3 °F 58.7 °F 29.75 in SSE 13.0 mph 22.0 mph 91 % 0.00 in 260 W/m2
13:16 61.3 °F 58.7 °F 29.74 in SSE 12.0 mph 22.0 mph 91 % 0.00 in 322 W/m2
13:21 61.2 °F 58.5 °F 29.74 in SSE 12.0 mph 21.0 mph 91 % 0.00 in 165 W/m2
13:26 61.0 °F 58.3 °F 29.74 in SSE 12.0 mph 21.0 mph 91 % 0.00 in 185 W/m2
13:31 61.0 °F 58.6 °F 29.73 in SSE 10.0 mph 21.0 mph 92 % 0.00 in 167 W/m2
13:36 61.0 °F 58.6 °F 29.73 in SSE 11.0 mph 19.0 mph 92 % 0.00 in 204 W/m2
13:41 60.6 °F 58.3 °F 29.73 in SSE 11.0 mph 19.0 mph 92 % 0.00 in 163 W/m2
13:46 60.6 °F 58.3 °F 29.73 in SSE 11.0 mph 21.0 mph 92 % 0.00 in 165 W/m2
13:51 60.6 °F 58.3 °F 29.73 in SSE 11.0 mph 21.0 mph 92 % 0.00 in 218 W/m2
13:56 60.8 °F 58.5 °F 29.73 in SSE 11.0 mph 19.0 mph 92 % 0.00 in 232 W/m2
14:01 61.0 °F 58.9 °F 29.72 in SSE 11.0 mph 22.0 mph 93 % 0.00 in 213 W/m2
14:07 61.0 °F 58.9 °F 29.73 in South 11.0 mph 22.0 mph 93 % 0.00 in 199 W/m2
14:12 61.2 °F 59.1 °F 29.72 in South 10.0 mph 19.0 mph 93 % 0.00 in 279 W/m2
14:17 61.3 °F 59.3 °F 29.72 in SSE 11.0 mph 21.0 mph 93 % 0.00 in 346 W/m2
14:22 61.5 °F 59.2 °F 29.72 in South 12.0 mph 21.0 mph 92 % 0.00 in 297 W/m2
14:27 61.9 °F 59.5 °F 29.72 in South 11.0 mph 22.0 mph 92 % 0.00 in 255 W/m2
14:32 61.9 °F 59.2 °F 29.72 in South 10.0 mph 22.0 mph 91 % 0.00 in 290 W/m2
14:37 62.2 °F 59.6 °F 29.72 in South 9.0 mph 19.0 mph 91 % 0.00 in 258 W/m2
14:42 62.4 °F 59.4 °F 29.72 in South 10.0 mph 21.0 mph 90 % 0.00 in 294 W/m2
14:47 62.4 °F 59.4 °F 29.71 in South 11.0 mph 22.0 mph 90 % 0.00 in 454 W/m2
14:52 62.8 °F 59.8 °F 29.71 in South 11.0 mph 22.0 mph 90 % 0.00 in 429 W/m2
14:57 63.0 °F 60.0 °F 29.70 in South 11.0 mph 24.0 mph 90 % 0.00 in 417 W/m2
15:02 63.0 °F 60.0 °F 29.70 in South 12.0 mph 24.0 mph 90 % 0.00 in 315 W/m2
15:07 63.0 °F 60.0 °F 29.70 in South 12.0 mph 22.0 mph 90 % 0.00 in 418 W/m2
15:12 63.0 °F 60.0 °F 29.70 in South 11.0 mph 21.0 mph 90 % 0.00 in 499 W/m2
15:17 63.3 °F 60.3 °F 29.70 in SSE 11.0 mph 20.0 mph 90 % 0.00 in 452 W/m2
15:22 63.3 °F 60.0 °F 29.69 in South 10.0 mph 20.0 mph 89 % 0.00 in 290 W/m2
15:27 63.5 °F 60.2 °F 29.69 in South 11.0 mph 21.0 mph 89 % 0.00 in 271 W/m2
15:32 63.5 °F 60.2 °F 29.69 in South 11.0 mph 21.0 mph 89 % 0.00 in 276 W/m2
15:37 63.5 °F 60.2 °F 29.69 in South 10.0 mph 20.0 mph 89 % 0.00 in 218 W/m2
15:42 63.3 °F 60.0 °F 29.69 in South 10.0 mph 20.0 mph 89 % 0.00 in 244 W/m2
15:47 63.3 °F 60.0 °F 29.69 in South 9.0 mph 19.0 mph 89 % 0.00 in 214 W/m2
15:52 63.3 °F 60.3 °F 29.69 in South 9.0 mph 19.0 mph 90 % 0.00 in 149 W/m2
15:57 63.1 °F 60.2 °F 29.69 in South 9.0 mph 19.0 mph 90 % 0.00 in 144 W/m2
16:02 63.0 °F 60.0 °F 29.69 in SSE 9.0 mph 16.0 mph 90 % 0.00 in 311 W/m2
16:07 63.0 °F 60.3 °F 29.69 in SSE 10.0 mph 16.0 mph 91 % 0.00 in 309 W/m2
16:12 63.0 °F 60.3 °F 29.69 in SSE 10.0 mph 18.0 mph 91 % 0.00 in 306 W/m2
16:17 63.0 °F 60.3 °F 29.68 in SSE 11.0 mph 18.0 mph 91 % 0.00 in 387 W/m2
16:22 63.1 °F 60.5 °F 29.68 in SSE 11.0 mph 18.0 mph 91 % 0.00 in 246 W/m2
16:27 63.3 °F 60.6 °F 29.68 in SSE 10.0 mph 18.0 mph 91 % 0.00 in 271 W/m2
16:32 63.5 °F 60.8 °F 29.67 in SSE 9.0 mph 16.0 mph 91 % 0.00 in 334 W/m2
16:37 63.9 °F 60.9 °F 29.67 in SSE 10.0 mph 18.0 mph 90 % 0.00 in 703 W/m2
16:42 64.2 °F 60.9 °F 29.66 in SSE 11.0 mph 18.0 mph 89 % 0.00 in 459 W/m2
16:47 64.8 °F 61.4 °F 29.66 in SSE 10.0 mph 18.0 mph 89 % 0.00 in 350 W/m2
16:52 64.8 °F 60.8 °F 29.66 in SSE 10.0 mph 16.0 mph 87 % 0.00 in 599 W/m2
16:57 65.1 °F 61.2 °F 29.66 in SSE 10.0 mph 16.0 mph 87 % 0.00 in 534 W/m2
17:02 65.5 °F 61.2 °F 29.66 in SSE 11.0 mph 20.0 mph 86 % 0.00 in 554 W/m2
17:07 65.7 °F 61.0 °F 29.66 in SSE 12.0 mph 20.0 mph 85 % 0.00 in 534 W/m2
17:12 65.8 °F 60.9 °F 29.66 in SSE 11.0 mph 20.0 mph 84 % 0.00 in 279 W/m2
17:17 65.8 °F 60.9 °F 29.65 in SSE 10.0 mph 20.0 mph 84 % 0.00 in 200 W/m2
17:22 66.0 °F 61.0 °F 29.65 in SSE 10.0 mph 20.0 mph 84 % 0.00 in 417 W/m2
17:27 66.4 °F 61.1 °F 29.65 in South 11.0 mph 20.0 mph 83 % 0.00 in 584 W/m2
17:32 66.6 °F 60.9 °F 29.64 in South 11.0 mph 22.0 mph 82 % 0.00 in 503 W/m2
17:37 66.9 °F 61.2 °F 29.64 in South 11.0 mph 22.0 mph 82 % 0.00 in 501 W/m2
17:42 67.3 °F 61.2 °F 29.64 in South 11.0 mph 21.0 mph 81 % 0.00 in 388 W/m2
17:47 67.1 °F 60.7 °F 29.63 in SSE 10.0 mph 21.0 mph 80 % 0.00 in 464 W/m2
17:52 67.1 °F 60.7 °F 29.63 in SSE 10.0 mph 21.0 mph 80 % 0.00 in 406 W/m2
17:57 67.3 °F 61.2 °F 29.63 in SSE 12.0 mph 22.0 mph 81 % 0.00 in 113 W/m2
18:02 66.9 °F 60.9 °F 29.64 in SSE 13.0 mph 23.0 mph 81 % 0.00 in 142 W/m2
18:07 66.4 °F 60.7 °F 29.63 in SSE 13.0 mph 23.0 mph 82 % 0.00 in 209 W/m2
18:12 66.4 °F 61.1 °F 29.63 in SSE 11.0 mph 22.0 mph 83 % 0.00 in 156 W/m2
18:17 66.4 °F 61.1 °F 29.63 in SSE 12.0 mph 22.0 mph 83 % 0.00 in 137 W/m2
18:22 66.2 °F 60.9 °F 29.63 in SSE 12.0 mph 22.0 mph 83 % 0.00 in 132 W/m2
18:27 66.4 °F 61.1 °F 29.63 in South 10.0 mph 20.0 mph 83 % 0.00 in 438 W/m2
18:30 66.4 °F 61.1 °F 29.62 in SSE 10.0 mph 20.0 mph 83 % 0.00 in 355 W/m2
18:35 66.6 °F 61.2 °F 29.62 in SSE 10.0 mph 20.0 mph 83 % 0.00 in 202 W/m2
18:40 66.4 °F 61.1 °F 29.62 in SSE 10.0 mph 20.0 mph 83 % 0.00 in 114 W/m2
18:46 66.0 °F 60.7 °F 29.62 in SSE 10.0 mph 18.0 mph 83 % 0.00 in 137 W/m2
18:48 66.0 °F 61.0 °F 29.62 in SSE 10.0 mph 18.0 mph 84 % 0.00 in 104 W/m2
18:53 65.8 °F 60.9 °F 29.62 in SSE 11.0 mph 18.0 mph 84 % 0.00 in 195 W/m2
18:58 65.7 °F 60.7 °F 29.62 in SSE 11.0 mph 18.0 mph 84 % 0.00 in 134 W/m2
19:03 65.7 °F 61.0 °F 29.62 in SSE 9.0 mph 15.0 mph 85 % 0.00 in 144 W/m2
19:08 65.8 °F 61.2 °F 29.62 in SSE 8.0 mph 14.0 mph 85 % 0.00 in 183 W/m2
19:13 65.8 °F 61.2 °F 29.62 in SSE 8.0 mph 14.0 mph 85 % 0.00 in 77 W/m2
19:18 65.8 °F 61.2 °F 29.61 in SSE 9.0 mph 13.0 mph 85 % 0.00 in 84 W/m2
19:23 65.7 °F 61.0 °F 29.61 in SSE 8.0 mph 13.0 mph 85 % 0.00 in 83 W/m2
19:28 65.7 °F 61.0 °F 29.61 in SE 8.0 mph 13.0 mph 85 % 0.00 in 90 W/m2
19:31 65.7 °F 61.0 °F 29.61 in SE 8.0 mph 13.0 mph 85 % 0.00 in 105 W/m2
19:36 65.7 °F 61.4 °F 29.61 in SE 7.0 mph 12.0 mph 86 % 0.00 in 105 W/m2
19:41 65.8 °F 61.5 °F 29.60 in SE 7.0 mph 13.0 mph 86 % 0.00 in 83 W/m2
19:46 65.8 °F 61.5 °F 29.60 in SE 8.0 mph 13.0 mph 86 % 0.00 in 40 W/m2
19:51 65.8 °F 61.5 °F 29.60 in SE 7.0 mph 11.0 mph 86 % 0.00 in 33 W/m2
19:56 65.8 °F 61.5 °F 29.60 in SE 7.0 mph 13.0 mph 86 % 0.00 in 26 W/m2
20:01 65.8 °F 61.5 °F 29.60 in SE 7.0 mph 13.0 mph 86 % 0.00 in 16 W/m2
20:06 65.7 °F 61.7 °F 29.60 in SE 7.0 mph 13.0 mph 87 % 0.00 in 14 W/m2
20:11 65.7 °F 61.7 °F 29.60 in SSE 8.0 mph 13.0 mph 87 % 0.00 in 21 W/m2
20:16 65.7 °F 61.7 °F 29.60 in SSE 8.0 mph 13.0 mph 87 % 0.00 in 28 W/m2
20:21 65.7 °F 61.7 °F 29.59 in SSE 7.0 mph 11.0 mph 87 % 0.00 in 23 W/m2
20:27 65.5 °F 61.8 °F 29.60 in SSE 7.0 mph 11.0 mph 88 % 0.00 in 11 W/m2
20:31 65.3 °F 62.0 °F 29.60 in South 7.0 mph 12.0 mph 89 % 0.00 in 11 W/m2
20:37 65.1 °F 61.8 °F 29.60 in South 7.0 mph 14.0 mph 89 % 0.00 in 11 W/m2
20:42 64.9 °F 61.9 °F 29.60 in South 8.0 mph 14.0 mph 90 % 0.00 in 11 W/m2
20:47 64.8 °F 61.8 °F 29.60 in South 7.0 mph 12.0 mph 90 % 0.00 in 7 W/m2
20:52 64.8 °F 61.8 °F 29.59 in South 7.0 mph 12.0 mph 90 % 0.00 in 5 W/m2
20:57 64.6 °F 61.6 °F 29.60 in South 7.0 mph 12.0 mph 90 % 0.00 in 0 W/m2
21:02 64.6 °F 61.9 °F 29.60 in SSE 6.0 mph 12.0 mph 91 % 0.00 in 0 W/m2
21:07 64.4 °F 61.7 °F 29.60 in South 7.0 mph 14.0 mph 91 % 0.00 in 0 W/m2
21:12 64.2 °F 61.8 °F 29.59 in South 8.0 mph 14.0 mph 92 % 0.00 in 0 W/m2
21:17 64.2 °F 61.8 °F 29.59 in South 6.0 mph 13.0 mph 92 % 0.00 in 0 W/m2
21:22 64.2 °F 61.8 °F 29.59 in South 6.0 mph 12.0 mph 92 % 0.00 in 0 W/m2
21:27 64.2 °F 61.8 °F 29.59 in South 7.0 mph 13.0 mph 92 % 0.00 in 0 W/m2
21:32 64.0 °F 61.7 °F 29.59 in SSE 7.0 mph 13.0 mph 92 % 0.00 in 0 W/m2
21:37 64.0 °F 61.7 °F 29.58 in SSE 7.0 mph 11.0 mph 92 % 0.00 in 0 W/m2
21:42 64.0 °F 61.7 °F 29.58 in SSE 7.0 mph 11.0 mph 92 % 0.00 in 0 W/m2
21:47 63.9 °F 61.8 °F 29.58 in SSE 7.0 mph 11.0 mph 93 % 0.00 in 0 W/m2
21:52 63.9 °F 61.8 °F 29.59 in SSE 7.0 mph 10.0 mph 93 % 0.00 in 0 W/m2
21:53 63.9 °F 61.8 °F 29.59 in SSE 6.0 mph 10.0 mph 93 % 0.00 in 0 W/m2
21:58 63.9 °F 61.8 °F 29.58 in SSE 5.0 mph 10.0 mph 93 % 0.00 in 0 W/m2
22:03 63.9 °F 61.8 °F 29.58 in South 5.0 mph 10.0 mph 93 % 0.00 in 0 W/m2
22:08 63.9 °F 61.8 °F 29.58 in South 5.0 mph 10.0 mph 93 % 0.00 in 0 W/m2
22:13 64.0 °F 62.3 °F 29.58 in South 5.0 mph 10.0 mph 94 % 0.00 in 0 W/m2
22:18 64.0 °F 62.3 °F 29.58 in South 5.0 mph 10.0 mph 94 % 0.01 in 0 W/m2
22:23 64.0 °F 62.3 °F 29.58 in South 5.0 mph 9.0 mph 94 % 0.01 in 0 W/m2
22:28 64.0 °F 62.3 °F 29.58 in SSW 5.0 mph 9.0 mph 94 % 0.01 in 0 W/m2
22:33 64.0 °F 62.3 °F 29.58 in SSW 5.0 mph 9.0 mph 94 % 0.01 in 0 W/m2
22:38 64.0 °F 62.3 °F 29.58 in SSW 6.0 mph 12.0 mph 94 % 0.01 in 0 W/m2
22:43 64.0 °F 62.3 °F 29.58 in SSW 7.0 mph 12.0 mph 94 % 0.02 in 0 W/m2
22:48 63.9 °F 61.8 °F 29.58 in SSW 7.0 mph 12.0 mph 93 % 0.03 in 0 W/m2
22:53 63.9 °F 61.8 °F 29.58 in SSW 6.0 mph 12.0 mph 93 % 0.05 in 0 W/m2
22:58 63.7 °F 61.9 °F 29.58 in SSW 6.0 mph 14.0 mph 94 % 0.06 in 0 W/m2
23:03 63.7 °F 61.9 °F 29.57 in SSW 6.0 mph 14.0 mph 94 % 0.06 in 0 W/m2
23:08 63.5 °F 61.7 °F 29.57 in SSW 6.0 mph 10.0 mph 94 % 0.06 in 0 W/m2
23:13 63.3 °F 61.6 °F 29.57 in SSW 6.0 mph 10.0 mph 94 % 0.06 in 0 W/m2
23:18 63.3 °F 61.6 °F 29.57 in SW 5.0 mph 9.0 mph 94 % 0.05 in 0 W/m2
23:23 63.1 °F 61.4 °F 29.57 in SSW 5.0 mph 9.0 mph 94 % 0.05 in 0 W/m2
23:28 63.0 °F 61.2 °F 29.57 in SW 5.0 mph 8.0 mph 94 % 0.05 in 0 W/m2
23:34 63.0 °F 61.2 °F 29.57 in SW 5.0 mph 9.0 mph 94 % 0.05 in 0 W/m2
23:39 62.8 °F 61.0 °F 29.57 in SW 6.0 mph 10.0 mph 94 % 0.05 in 0 W/m2
23:44 62.8 °F 61.0 °F 29.56 in SW 6.0 mph 10.0 mph 94 % 0.03 in 0 W/m2
23:49 62.8 °F 61.0 °F 29.56 in SW 6.0 mph 10.0 mph 94 % 0.01 in 0 W/m2
23:54 62.6 °F 60.5 °F 29.56 in SW 7.0 mph 12.0 mph 93 % 0.01 in 0 W/m2
23:59 62.4 °F 60.4 °F 29.56 in SW 7.0 mph 12.0 mph 93 % 0.00 in 0 W/m2
Delerius-Weather
Compliments of Weather Underground - 2.25 mb

Data updates at regular intervals.